Time;durP1;ratioP1;P1;durP2;ratioP2;P2;SDS_P1;SDS_P2;PMS_P1;PMS_P2;Temp;Humidity;BMP_temperature;BMP_pressure;BME280_temperature;BME280_humidity;BME280_pressure;Samples;Min_cycle;Max_cycle;Signal;HPM_P1;HPM_P2
2023/10/29 00:00:34;;;;;;;4.93;1.80;;;12.90;99.90;;;12.84;89.60;98384.88;5040133;28;20037;-81
2023/10/29 00:03:02;;;;;;;7.10;1.80;;;12.80;99.90;;;12.88;89.89;98380.53;5011465;28;20100;-82
2023/10/29 00:05:30;;;;;;;4.78;2.00;;;12.80;99.90;;;12.91;89.64;98371.16;5052214;28;20394;-81
2023/10/29 00:07:58;;;;;;;4.38;1.85;;;12.80;99.90;;;12.91;89.37;98357.78;5021817;28;20042;-81
2023/10/29 00:10:26;;;;;;;7.93;1.70;;;12.90;99.90;;;12.92;89.02;98370.09;5021575;28;20050;-81
2023/10/29 00:12:54;;;;;;;4.07;1.63;;;12.90;99.90;;;12.94;89.00;98357.25;5020172;28;20065;-81
2023/10/29 00:15:22;;;;;;;5.90;1.55;;;12.90;99.90;;;12.94;89.23;98365.28;5020377;28;20124;-82
2023/10/29 00:17:49;;;;;;;5.65;1.80;;;12.90;99.90;;;12.93;89.44;98358.31;5009962;28;20122;-82
2023/10/29 00:20:17;;;;;;;7.43;1.88;;;12.90;99.90;;;12.93;89.11;98360.97;5003023;28;20054;-82
2023/10/29 00:22:45;;;;;;;6.38;1.60;;;12.90;99.90;;;12.96;88.88;98371.13;5003540;28;20054;-82
2023/10/29 00:25:13;;;;;;;4.60;1.65;;;13.00;99.90;;;12.94;89.02;98355.38;5023639;28;20095;-82
2023/10/29 00:27:40;;;;;;;6.70;1.83;;;13.00;99.90;;;12.94;89.27;98349.22;5044788;28;20038;-81
2023/10/29 00:30:09;;;;;;;3.95;1.48;;;13.00;99.90;;;12.95;89.26;98342.78;5041796;28;20045;-81
2023/10/29 00:32:37;;;;;;;6.03;1.70;;;13.00;99.90;;;12.93;89.17;98359.09;5029556;28;20065;-82
2023/10/29 00:35:05;;;;;;;5.40;1.80;;;13.00;99.90;;;12.91;88.88;98355.13;5037819;28;20509;-81
2023/10/29 00:37:33;;;;;;;7.57;2.03;;;13.00;99.90;;;12.91;88.87;98347.09;5004411;28;20050;-81
2023/10/29 00:40:02;;;;;;;6.25;1.80;;;13.00;99.90;;;12.95;89.22;98348.13;4986678;28;20533;-81
2023/10/29 00:42:30;;;;;;;6.32;1.60;;;13.00;99.90;;;12.95;89.00;98337.44;5006260;28;20513;-81
2023/10/29 00:44:58;;;;;;;2.90;1.50;;;13.00;99.90;;;12.95;87.96;98340.09;5004303;28;20051;-81
2023/10/29 00:47:25;;;;;;;4.47;1.35;;;13.00;99.90;;;12.98;88.91;98332.34;5019990;28;20046;-81
2023/10/29 00:49:53;;;;;;;4.25;1.60;;;13.00;99.90;;;12.96;88.06;98344.38;5011799;28;20092;-82
2023/10/29 00:52:22;;;;;;;5.45;1.50;;;13.10;99.90;;;12.98;87.85;98329.66;5025455;28;20049;-82
2023/10/29 00:54:50;;;;;;;4.78;1.60;;;13.10;99.90;;;12.96;87.86;98328.31;5040909;28;20509;-82
2023/10/29 00:57:20;;;;;;;5.85;1.70;;;13.10;99.90;;;12.97;87.74;98338.72;5025652;28;20104;-82
2023/10/29 00:59:48;;;;;;;4.88;1.60;;;13.10;99.90;;;12.98;87.85;98342.22;5043507;28;20064;-82
2023/10/29 01:02:16;;;;;;;5.20;1.70;;;13.10;99.90;;;12.99;87.69;98349.19;5044700;28;20050;-82
2023/10/29 01:04:45;;;;;;;7.57;2.10;;;13.10;99.90;;;13.00;87.28;98343.53;5044304;28;20049;-81
2023/10/29 01:07:13;;;;;;;7.13;2.20;;;13.20;99.90;;;13.02;88.28;98354.75;5034583;28;20477;-82
2023/10/29 01:09:42;;;;;;;6.47;1.70;;;13.20;99.90;;;12.99;88.84;98343.84;5019035;28;20497;-82
2023/10/29 01:12:16;;;;;;;7.95;1.70;;;13.10;99.90;;;12.98;89.03;98331.50;5043282;28;20052;-82
2023/10/29 01:14:46;;;;;;;7.65;1.80;;;13.10;99.90;;;12.99;89.31;98325.91;5044305;28;20041;-82
2023/10/29 01:17:13;;;;;;;8.25;1.73;;;13.10;99.90;;;13.01;89.48;98342.47;5032958;28;20069;-82
2023/10/29 01:19:41;;;;;;;3.53;1.50;;;13.10;99.90;;;13.03;89.50;98331.47;5024847;28;20053;-82
2023/10/29 01:22:09;;;;;;;5.57;1.80;;;13.10;99.90;;;13.06;89.14;98322.88;5039999;28;20060;-81
2023/10/29 01:24:38;;;;;;;4.07;1.40;;;13.10;99.90;;;13.05;88.51;98319.41;5039892;28;20510;-81
2023/10/29 01:27:07;;;;;;;6.05;1.55;;;13.10;99.90;;;13.04;88.58;98315.16;5023034;28;20049;-81
2023/10/29 01:29:35;;;;;;;4.78;1.73;;;13.10;99.90;;;13.03;88.15;98313.56;5024512;28;20412;-81
2023/10/29 01:32:05;;;;;;;6.55;1.83;;;13.10;99.90;;;13.04;87.75;98322.38;5025065;28;20038;-81
2023/10/29 01:34:32;;;;;;;5.15;1.50;;;13.10;99.90;;;13.04;87.81;98314.34;5021228;28;20042;-82
2023/10/29 01:37:00;;;;;;;5.22;1.60;;;13.20;99.90;;;13.05;86.53;98316.75;5036113;28;20077;-81
2023/10/29 01:39:28;;;;;;;4.20;1.70;;;13.10;99.90;;;13.07;87.19;98313.78;5036283;28;20564;-81
2023/10/29 01:41:57;;;;;;;3.83;1.40;;;13.20;99.90;;;13.08;87.24;98310.84;5036267;28;20042;-81
2023/10/29 01:44:25;;;;;;;5.97;1.60;;;13.20;99.90;;;13.07;87.11;98309.22;4998531;28;20050;-81
2023/10/29 01:46:53;;;;;;;6.00;1.50;;;13.10;99.90;;;13.09;87.11;98295.56;5013751;28;20072;-81
2023/10/29 01:49:22;;;;;;;4.50;1.40;;;13.20;99.90;;;13.08;86.63;98316.19;5020180;28;20069;-81
2023/10/29 01:51:50;;;;;;;6.22;1.50;;;13.20;99.90;;;13.10;86.59;98306.00;5018647;28;20536;-82
2023/10/29 01:54:17;;;;;;;5.70;1.50;;;13.20;99.90;;;13.09;86.55;98311.63;5034557;28;20074;-81
2023/10/29 01:56:45;;;;;;;5.55;1.70;;;13.20;99.90;;;13.13;86.49;98318.03;5030725;28;22969;-82
2023/10/29 01:59:15;;;;;;;5.05;1.50;;;13.20;99.90;;;13.11;86.71;98315.63;5014123;28;20046;-82
2023/10/29 02:01:43;;;;;;;4.70;1.67;;;13.20;99.90;;;13.13;86.80;98310.00;5014906;28;20046;-81
2023/10/29 02:04:10;;;;;;;6.20;1.55;;;13.20;99.90;;;13.11;87.40;98302.22;5015408;28;20113;-81
2023/10/29 02:06:40;;;;;;;9.48;1.80;;;13.20;99.90;;;13.12;86.94;98295.00;5030725;28;20424;-81
2023/10/29 02:09:09;;;;;;;3.50;1.30;;;13.20;99.90;;;13.13;87.22;98276.00;5038189;28;20041;-81
2023/10/29 02:11:37;;;;;;;4.30;1.65;;;13.20;99.90;;;13.14;87.31;98271.44;5055506;28;20151;-81
2023/10/29 02:14:05;;;;;;;4.80;1.40;;;13.20;99.90;;;13.15;87.29;98267.69;5038190;28;20045;-81
2023/10/29 02:16:33;;;;;;;5.32;1.63;;;13.20;99.90;;;13.13;87.43;98256.47;5024448;28;20056;-82
2023/10/29 02:19:01;;;;;;;6.70;1.60;;;13.20;99.90;;;13.17;87.39;98265.50;5018725;28;20042;-82
2023/10/29 02:21:29;;;;;;;4.30;1.40;;;13.20;99.90;;;13.15;86.86;98262.31;5019412;28;20476;-82
2023/10/29 02:24:00;;;;;;;3.22;1.42;;;13.20;99.90;;;13.14;86.62;98250.81;5020206;28;20497;-82
2023/10/29 02:26:29;;;;;;;5.13;1.70;;;13.20;99.90;;;13.16;87.09;98250.53;5018049;28;20050;-82
2023/10/29 02:28:56;;;;;;;4.50;1.67;;;13.20;99.90;;;13.15;87.16;98235.56;5018931;28;20042;-82
2023/10/29 02:31:23;;;;;;;6.40;1.58;;;13.20;99.90;;;13.14;87.36;98220.59;5018173;28;20058;-82
2023/10/29 02:33:53;;;;;;;6.25;1.55;;;13.20;99.90;;;13.13;87.49;98232.38;5039601;28;20065;-82
2023/10/29 02:36:20;;;;;;;6.25;1.40;;;13.20;99.90;;;13.14;87.96;98228.63;5024946;28;20041;-82
2023/10/29 02:38:48;;;;;;;6.85;1.63;;;13.20;99.90;;;13.13;87.91;98233.19;5037650;28;20057;-82
2023/10/29 02:41:17;;;;;;;3.67;1.30;;;13.20;99.90;;;13.11;87.44;98229.97;5039988;28;20563;-82
2023/10/29 02:43:44;;;;;;;6.80;1.38;;;13.20;99.90;;;13.14;87.49;98236.66;5038244;28;20041;-81
2023/10/29 02:46:13;;;;;;;8.90;1.75;;;13.20;99.90;;;13.17;87.42;98241.41;5037202;28;20037;-81
2023/10/29 02:48:41;;;;;;;5.30;1.52;;;13.20;99.90;;;13.17;87.17;98229.91;5039508;28;20052;-81
2023/10/29 02:51:12;;;;;;;3.20;1.40;;;13.20;99.90;;;13.15;86.94;98219.50;5000463;28;20046;-82
2023/10/29 02:53:40;;;;;;;5.40;1.50;;;13.20;99.90;;;13.17;87.23;98211.97;5000870;28;20125;-82
2023/10/29 02:56:07;;;;;;;3.95;1.48;;;13.20;99.90;;;13.18;87.09;98207.44;5015647;28;20038;-82
2023/10/29 02:58:37;;;;;;;5.82;1.50;;;13.20;99.90;;;13.15;87.16;98225.66;5035634;28;20101;-82
2023/10/29 03:01:07;;;;;;;3.15;1.23;;;13.20;99.90;;;13.16;86.88;98229.13;5039952;28;20052;-81
2023/10/29 03:03:36;;;;;;;5.45;1.48;;;13.20;99.90;;;13.14;85.89;98232.09;5038447;28;20053;-81
2023/10/29 03:06:06;;;;;;;4.43;1.58;;;13.30;99.90;;;13.15;85.63;98228.31;5034607;28;20038;-82
2023/10/29 03:08:34;;;;;;;3.72;1.23;;;13.30;99.90;;;13.15;85.19;98228.31;5035765;28;20041;-82
2023/10/29 03:11:02;;;;;;;4.50;1.27;;;13.30;99.90;;;13.21;85.32;98229.06;5034667;28;20049;-81
2023/10/29 03:13:30;;;;;;;4.18;1.50;;;13.30;99.90;;;13.23;84.70;98248.38;5019896;28;20038;-82
2023/10/29 03:15:58;;;;;;;3.53;1.40;;;13.30;99.90;;;13.22;85.39;98227.22;5018374;28;20096;-82
2023/10/29 03:18:26;;;;;;;5.72;1.63;;;13.30;99.90;;;13.24;84.98;98231.22;5020188;28;20053;-82
2023/10/29 03:20:55;;;;;;;3.85;1.30;;;13.30;99.90;;;13.24;84.83;98228.53;5019272;28;20394;-82
2023/10/29 03:23:24;;;;;;;5.18;1.23;;;13.40;99.90;;;13.20;84.59;98214.09;5034424;28;20096;-82
2023/10/29 03:25:52;;;;;;;6.38;1.40;;;13.30;99.90;;;13.24;84.75;98206.34;5034984;28;20071;-82
2023/10/29 03:28:19;;;;;;;3.65;1.60;;;13.40;99.90;;;13.25;84.82;98210.59;5020573;28;20476;-81
2023/10/29 03:30:47;;;;;;;3.75;1.05;;;13.40;99.90;;;13.25;84.39;98189.97;5034933;28;20574;-81
2023/10/29 03:33:16;;;;;;;3.10;1.10;;;13.40;99.90;;;13.27;84.21;98197.72;5019381;28;20061;-81
2023/10/29 03:35:43;;;;;;;6.07;1.45;;;13.40;99.90;;;13.27;84.14;98193.16;5019670;28;20069;-81
2023/10/29 03:38:11;;;;;;;5.10;1.20;;;13.40;99.90;;;13.29;84.29;98196.38;5036076;28;20391;-81
2023/10/29 03:40:39;;;;;;;5.55;1.20;;;13.40;99.90;;;13.23;84.50;98192.16;5035717;28;20049;-81
2023/10/29 03:43:06;;;;;;;2.78;1.05;;;13.30;99.90;;;13.25;83.55;98197.22;5002872;28;20034;-82
2023/10/29 03:45:34;;;;;;;4.78;1.20;;;13.30;99.90;;;13.30;84.40;98189.94;5020082;28;20047;-81
2023/10/29 03:48:02;;;;;;;4.47;1.30;;;13.40;99.90;;;13.30;84.09;98184.56;5055006;28;20053;-82
2023/10/29 03:50:31;;;;;;;4.03;1.20;;;13.40;99.90;;;13.31;84.61;98185.38;5023684;28;20052;-82
2023/10/29 03:52:58;;;;;;;6.25;1.08;;;13.40;99.90;;;13.32;84.62;98173.56;5059511;28;20572;-82
2023/10/29 03:55:26;;;;;;;4.30;1.30;;;13.40;99.90;;;13.33;84.83;98181.34;5027752;28;20046;-82
2023/10/29 03:57:53;;;;;;;3.60;1.00;;;13.40;99.90;;;13.35;83.85;98187.19;5041685;28;20068;-83
2023/10/29 04:00:21;;;;;;;3.50;1.00;;;13.50;99.90;;;13.35;83.96;98186.41;4989248;28;20070;-81
2023/10/29 04:02:49;;;;;;;2.40;1.02;;;13.50;99.90;;;13.36;83.88;98210.19;5006484;28;20053;-81
2023/10/29 04:05:18;;;;;;;3.97;0.90;;;13.50;99.90;;;13.38;83.91;98204.56;5005834;28;20114;-81
2023/10/29 04:07:48;;;;;;;3.67;0.93;;;13.50;99.90;;;13.39;83.08;98212.31;5022054;28;20128;-81
2023/10/29 04:10:16;;;;;;;4.85;1.02;;;13.50;99.90;;;13.43;83.04;98198.38;5040802;28;20049;-81
2023/10/29 04:12:45;;;;;;;5.65;1.20;;;13.60;99.90;;;13.45;83.17;98201.53;5027474;28;20098;-81
2023/10/29 04:15:13;;;;;;;3.58;0.98;;;13.60;99.90;;;13.47;82.95;98189.47;5028956;28;20045;-81
2023/10/29 04:17:40;;;;;;;4.25;1.10;;;13.60;99.90;;;13.45;83.11;98186.28;5006484;28;20062;-82
2023/10/29 04:20:10;;;;;;;3.70;1.17;;;13.60;99.90;;;13.47;83.17;98197.50;5006719;28;20050;-82
2023/10/29 04:22:37;;;;;;;4.47;1.00;;;13.60;99.90;;;13.47;83.34;98177.94;5051884;28;20564;-81
2023/10/29 04:25:07;;;;;;;6.85;1.00;;;13.60;99.90;;;13.47;82.99;98184.13;5026599;28;20033;-81
2023/10/29 04:27:35;;;;;;;4.20;1.17;;;13.60;99.90;;;13.45;82.89;98194.31;5026803;28;20045;-81
2023/10/29 04:30:02;;;;;;;2.67;1.10;;;13.60;99.90;;;13.47;82.43;98212.75;5041992;28;20081;-81
2023/10/29 04:32:30;;;;;;;4.68;1.00;;;13.60;99.90;;;13.47;82.32;98213.59;5026093;28;20045;-82
2023/10/29 04:34:57;;;;;;;3.92;1.00;;;13.60;99.90;;;13.47;82.14;98210.06;5009505;28;20543;-82
2023/10/29 04:37:25;;;;;;;2.60;1.05;;;13.60;99.90;;;13.47;82.69;98205.53;5026853;28;20050;-81
2023/10/29 04:39:53;;;;;;;4.78;1.33;;;13.60;99.90;;;13.47;82.48;98220.78;5041413;28;20041;-81
2023/10/29 04:42:22;;;;;;;4.95;0.93;;;13.60;99.90;;;13.48;82.50;98209.81;5026970;28;20049;-81
2023/10/29 04:44:50;;;;;;;5.05;1.30;;;13.60;99.90;;;13.46;82.40;98208.50;5025895;28;20054;-81
2023/10/29 04:47:17;;;;;;;3.50;1.15;;;13.60;99.90;;;13.49;82.35;98215.97;5026839;28;20037;-81
2023/10/29 04:49:46;;;;;;;4.30;1.27;;;13.60;99.90;;;13.48;82.24;98209.81;5057249;28;20046;-82
2023/10/29 04:52:14;;;;;;;3.00;0.98;;;13.60;99.90;;;13.49;82.18;98208.72;5027168;28;20049;-81
2023/10/29 04:54:43;;;;;;;5.20;1.10;;;13.60;99.90;;;13.50;82.03;98209.53;5028091;28;20049;-81
2023/10/29 04:57:11;;;;;;;3.38;1.30;;;13.60;99.90;;;13.52;81.95;98204.69;5025746;28;20100;-81
2023/10/29 04:59:40;;;;;;;3.95;1.17;;;13.60;99.90;;;13.53;81.77;98225.03;5024907;28;20061;-81
2023/10/29 05:02:07;;;;;;;3.97;1.20;;;13.60;99.90;;;13.55;81.86;98223.63;5058427;28;20046;-81
2023/10/29 05:04:35;;;;;;;3.17;1.05;;;13.60;99.90;;;13.54;82.54;98226.63;5042261;28;20056;-81
2023/10/29 05:07:03;;;;;;;3.08;1.00;;;13.60;99.90;;;13.53;81.63;98236.53;5026261;28;20037;-82
2023/10/29 05:09:30;;;;;;;2.63;1.00;;;13.60;99.90;;;13.56;82.03;98224.44;5026100;28;20061;-81
2023/10/29 05:11:58;;;;;;;3.67;1.20;;;13.60;99.90;;;13.56;82.08;98219.09;5042395;28;20054;-81
2023/10/29 05:14:26;;;;;;;3.42;1.23;;;13.60;99.90;;;13.57;81.90;98213.47;5042918;28;20472;-82
2023/10/29 05:16:56;;;;;;;3.78;0.90;;;13.60;99.90;;;13.57;81.71;98226.06;5027096;28;20042;-82
2023/10/29 05:19:23;;;;;;;2.50;1.00;;;13.60;99.90;;;13.56;81.94;98222.56;5058658;28;20038;-82
2023/10/29 05:21:51;;;;;;;2.88;1.20;;;13.60;99.90;;;13.55;81.04;98233.56;5026282;28;20046;-82
2023/10/29 05:24:20;;;;;;;7.25;1.30;;;13.70;99.90;;;13.59;81.40;98245.31;5048972;28;20043;-81
2023/10/29 05:26:48;;;;;;;3.30;1.08;;;13.70;99.90;;;13.59;81.20;98237.25;5038037;28;20077;-81
2023/10/29 05:29:16;;;;;;;5.28;1.08;;;13.70;99.90;;;13.61;80.59;98235.09;5026616;28;20071;-81
2023/10/29 05:31:43;;;;;;;3.33;1.10;;;13.70;99.90;;;13.59;81.18;98254.13;5041576;28;20048;-81
2023/10/29 05:34:14;;;;;;;2.47;0.90;;;13.70;99.90;;;13.58;80.56;98257.91;5025488;28;20042;-82
2023/10/29 05:36:42;;;;;;;3.88;0.90;;;13.70;99.90;;;13.61;81.18;98265.34;5026641;28;20137;-82
2023/10/29 05:39:11;;;;;;;3.83;1.13;;;13.70;99.90;;;13.60;80.64;98262.97;5025199;28;20037;-82
2023/10/29 05:41:38;;;;;;;3.10;1.17;;;13.70;99.90;;;13.63;80.85;98263.19;5022294;28;20045;-82
2023/10/29 05:44:07;;;;;;;6.25;1.30;;;13.70;99.90;;;13.65;80.18;98260.22;5023724;28;20046;-82
2023/10/29 05:46:34;;;;;;;4.28;1.30;;;13.70;99.90;;;13.65;80.72;98254.88;5029459;28;20042;-82
2023/10/29 05:49:03;;;;;;;3.22;1.30;;;13.70;99.90;;;13.63;80.59;98257.03;5023923;28;20046;-81
2023/10/29 05:51:32;;;;;;;4.28;1.10;;;13.70;99.90;;;13.63;80.27;98257.84;5040580;28;20050;-82
2023/10/29 05:53:59;;;;;;;3.25;1.20;;;13.70;99.90;;;13.65;80.34;98263.69;5018784;28;20104;-85
2023/10/29 05:56:27;;;;;;;3.40;0.90;;;13.70;99.90;;;13.64;80.31;98267.47;5017635;28;20069;-85
2023/10/29 05:58:55;;;;;;;3.92;1.30;;;13.70;99.90;;;13.65;80.38;98270.94;4994719;28;20125;-84
2023/10/29 06:01:22;;;;;;;3.08;1.00;;;13.70;99.90;;;13.64;79.58;98275.50;4978099;28;20100;-84
2023/10/29 06:03:49;;;;;;;4.07;1.08;;;13.80;99.90;;;13.63;79.67;98278.47;5010306;28;20073;-84
2023/10/29 06:06:17;;;;;;;4.40;1.00;;;13.70;99.90;;;13.65;79.18;98273.63;4995492;28;20046;-84
2023/10/29 06:08:46;;;;;;;4.28;1.27;;;13.80;99.90;;;13.66;79.52;98277.88;4995423;28;20441;-84
2023/10/29 06:11:13;;;;;;;5.50;1.50;;;13.80;99.90;;;13.68;79.76;98278.41;4995521;28;20460;-84
2023/10/29 06:13:43;;;;;;;6.15;2.50;;;13.80;99.90;;;13.67;79.92;98284.84;5007336;28;20486;-84
2023/10/29 06:16:11;;;;;;;7.00;1.70;;;13.80;99.90;;;13.67;79.74;98292.91;5015138;28;20054;-84
2023/10/29 06:18:39;;;;;;;2.33;1.00;;;13.80;99.90;;;13.69;79.11;98282.69;5014728;28;20069;-84
2023/10/29 06:21:06;;;;;;;5.43;1.30;;;13.80;99.90;;;13.70;78.88;98296.88;5046500;28;20413;-84
2023/10/29 06:23:34;;;;;;;7.00;1.10;;;13.80;99.90;;;13.70;79.15;98299.56;5013977;28;20046;-83
2023/10/29 06:26:08;;;;;;;3.95;1.20;;;13.80;99.90;;;13.68;79.50;98302.53;5029862;28;20056;-84
2023/10/29 06:28:36;;;;;;;5.10;1.10;;;13.80;99.90;;;13.68;79.31;98307.88;5028545;28;20479;-83
2023/10/29 06:31:04;;;;;;;3.70;1.30;;;13.80;99.90;;;13.69;79.14;98320.19;5029697;28;20073;-84
2023/10/29 06:33:31;;;;;;;3.88;1.20;;;13.80;99.90;;;13.72;78.90;98322.31;5013423;28;20145;-84
2023/10/29 06:36:00;;;;;;;6.88;1.50;;;13.80;99.90;;;13.72;79.27;98333.03;5051569;28;20077;-82
2023/10/29 06:38:27;;;;;;;7.78;1.23;;;13.80;99.90;;;13.72;79.48;98318.84;5028007;28;20046;-82
2023/10/29 06:40:55;;;;;;;7.57;1.50;;;13.80;99.90;;;13.71;79.85;98328.72;5023103;28;20124;-84
2023/10/29 06:43:24;;;;;;;5.93;1.70;;;13.80;99.90;;;13.70;79.59;98342.41;5016092;28;20497;-84
2023/10/29 06:45:52;;;;;;;4.80;1.23;;;13.80;99.90;;;13.68;78.98;98337.34;5013112;28;20088;-84
2023/10/29 06:48:22;;;;;;;4.60;1.25;;;13.80;99.90;;;13.71;79.08;98344.00;5015051;28;20100;-84
2023/10/29 06:50:50;;;;;;;4.95;1.67;;;13.80;99.90;;;13.70;78.94;98359.28;5013788;28;20065;-85
2023/10/29 06:53:17;;;;;;;4.85;1.30;;;13.80;99.90;;;13.70;78.65;98345.88;5029130;28;20038;-85
2023/10/29 06:55:46;;;;;;;6.13;1.50;;;13.80;99.90;;;13.73;78.29;98353.38;5029714;28;20464;-85
2023/10/29 06:58:13;;;;;;;3.45;1.10;;;13.80;99.90;;;13.73;78.28;98358.72;5000228;28;20088;-84
2023/10/29 07:00:43;;;;;;;2.97;1.10;;;13.80;99.90;;;13.74;78.00;98352.28;5034165;28;20046;-84
2023/10/29 07:03:10;;;;;;;3.40;1.15;;;13.80;99.90;;;13.74;78.48;98363.00;5018424;28;20069;-84
2023/10/29 07:05:38;;;;;;;3.92;1.13;;;13.80;99.90;;;13.74;78.73;98375.59;5017240;28;20521;-84
2023/10/29 07:08:07;;;;;;;5.07;1.10;;;13.80;99.90;;;13.76;78.76;98384.13;5049217;28;20042;-84
2023/10/29 07:10:35;;;;;;;5.35;1.13;;;13.80;99.90;;;13.76;79.68;98376.91;5017797;28;20050;-85
2023/10/29 07:13:02;;;;;;;6.28;1.45;;;13.80;99.90;;;13.77;79.38;98380.41;5032089;28;20069;-85
2023/10/29 07:15:30;;;;;;;4.43;1.20;;;13.70;99.90;;;13.73;78.18;98380.16;5017327;28;20042;-85
2023/10/29 07:18:01;;;;;;;5.10;1.30;;;13.70;99.90;;;13.73;77.84;98385.50;5033530;28;20061;-84
2023/10/29 07:20:29;;;;;;;;;;;13.80;99.90;;;13.74;78.36;98395.13;5018728;28;20046;-83
2023/10/29 07:22:56;;;;;;;8.13;1.00;;;13.80;99.90;;;13.72;78.80;98394.63;5000637;28;19988;-84
2023/10/29 07:25:24;;;;;;;5.95;1.23;;;13.80;99.90;;;13.72;78.54;98400.00;5010765;28;20038;-84
2023/10/29 07:27:52;;;;;;;3.78;1.33;;;13.80;99.90;;;13.73;78.25;98401.59;5000427;28;20053;-84
2023/10/29 07:30:19;;;;;;;9.13;1.30;;;13.80;99.90;;;13.72;78.01;98402.69;5007951;28;20078;-85
2023/10/29 07:32:47;;;;;;;7.22;1.60;;;13.80;99.90;;;13.73;78.26;98404.28;5001053;28;20042;-86
2023/10/29 07:35:20;;;;;;;5.22;1.33;;;13.80;99.90;;;13.72;77.33;98410.72;5030546;28;20039;-84
2023/10/29 07:37:48;;;;;;;5.28;1.30;;;13.80;99.90;;;13.73;76.88;98406.16;5025296;28;20061;-82
2023/10/29 07:40:16;;;;;;;5.00;1.30;;;13.80;99.90;;;13.75;77.34;98418.16;5030377;28;20049;-83
2023/10/29 07:42:44;;;;;;;7.88;1.40;;;13.80;99.90;;;13.77;78.19;98417.91;5045476;28;20061;-83
2023/10/29 07:45:12;;;;;;;5.20;1.30;;;13.80;99.90;;;13.73;77.13;98417.66;5042756;28;20077;-82
2023/10/29 07:47:39;;;;;;;10.15;1.80;;;13.80;99.90;;;13.70;77.59;98412.06;5030847;28;20052;-82
2023/10/29 07:50:11;;;;;;;6.40;1.17;;;13.80;99.90;;;13.73;78.20;98417.66;5030080;28;20069;-81
2023/10/29 07:52:40;;;;;;;;;;;13.80;99.90;;;13.74;78.73;98399.69;5030902;28;20105;-82
2023/10/29 07:55:09;;;;;;;3.97;0.90;;;13.70;99.90;;;13.69;78.88;98408.59;5029837;28;19956;-82
2023/10/29 07:57:38;;;;;;;6.60;1.23;;;13.70;99.90;;;13.67;77.63;98407.28;5028909;28;20046;-82
2023/10/29 08:00:09;;;;;;;3.80;1.20;;;13.60;99.90;;;13.64;76.97;98416.66;5031137;28;20053;-82
2023/10/29 08:02:39;;;;;;;8.32;1.25;;;13.60;99.90;;;13.67;77.39;98416.13;5029254;28;20053;-82
2023/10/29 08:05:08;;;;;;;4.28;1.20;;;13.70;99.90;;;13.67;77.16;98434.88;5062377;28;20053;-82
2023/10/29 08:07:36;;;;;;;4.95;1.20;;;13.70;99.90;;;13.71;77.38;98451.94;5030096;28;20076;-81
2023/10/29 08:10:06;;;;;;;8.57;1.35;;;13.80;99.90;;;13.73;77.30;98475.81;5011701;28;20505;-82
2023/10/29 08:12:34;;;;;;;5.77;1.07;;;13.80;99.90;;;13.71;77.10;98484.09;5019008;28;20054;-82
2023/10/29 08:15:02;;;;;;;6.97;1.13;;;13.80;99.90;;;13.75;77.36;98479.00;5026788;28;20065;-82
2023/10/29 08:17:30;;;;;;;5.57;1.20;;;13.80;99.90;;;13.74;77.36;98483.56;5028047;28;20026;-82
2023/10/29 08:19:58;;;;;;;9.52;1.50;;;13.80;99.90;;;13.73;77.09;98478.47;5025174;28;20481;-83
2023/10/29 08:22:26;;;;;;;5.43;1.40;;;13.80;99.90;;;13.73;77.26;98481.16;5018992;28;20545;-82
2023/10/29 08:24:54;;;;;;;7.82;1.48;;;13.70;99.90;;;13.74;77.81;98483.56;5024708;28;20108;-82
2023/10/29 08:27:23;;;;;;;6.07;1.35;;;13.80;99.90;;;13.76;78.19;98472.53;5026263;28;20091;-82
2023/10/29 08:29:51;;;;;;;5.93;1.20;;;13.80;99.90;;;13.74;77.35;98470.16;5029581;28;20045;-82
2023/10/29 08:32:20;;;;;;;5.43;1.20;;;13.80;99.90;;;13.79;77.24;98472.78;5030001;28;20049;-82
2023/10/29 08:34:48;;;;;;;5.55;1.27;;;13.80;99.90;;;13.82;77.94;98458.84;5027142;28;20048;-82
2023/10/29 08:37:15;;;;;;;5.22;1.35;;;13.80;99.90;;;13.80;77.92;98452.94;5011049;28;20046;-82
2023/10/29 08:39:43;;;;;;;4.05;1.33;;;13.80;99.90;;;13.79;77.21;98459.41;5027187;28;20046;-82
2023/10/29 08:42:10;;;;;;;6.25;1.40;;;13.80;99.90;;;13.79;77.16;98464.75;5027426;28;20088;-82
2023/10/29 08:44:39;;;;;;;6.63;1.38;;;13.90;99.90;;;13.83;76.93;98486.44;5028051;28;20100;-82
2023/10/29 08:47:07;;;;;;;7.78;2.00;;;13.90;99.90;;;13.85;76.70;98479.69;5028737;28;20433;-82
2023/10/29 08:49:34;;;;;;;7.50;1.25;;;13.90;99.90;;;13.87;76.66;98476.75;5011533;28;20046;-82
2023/10/29 08:52:02;;;;;;;7.72;1.63;;;13.90;99.90;;;13.88;76.87;98473.78;5030040;28;20449;-82
2023/10/29 08:54:29;;;;;;;6.57;1.40;;;14.00;99.90;;;13.90;76.84;98478.84;5029976;28;20421;-82
2023/10/29 08:56:57;;;;;;;3.60;1.17;;;14.00;99.90;;;13.93;76.85;98493.59;5027942;28;20057;-82
2023/10/29 08:59:25;;;;;;;5.10;1.52;;;14.00;99.90;;;13.94;76.54;98487.13;5040291;28;20077;-82
2023/10/29 09:01:54;;;;;;;6.93;1.55;;;14.00;99.90;;;13.97;76.54;98500.00;5010058;28;20050;-81
2023/10/29 09:04:22;;;;;;;4.07;1.20;;;14.00;99.90;;;13.97;75.79;98511.50;5040882;28;20050;-81
2023/10/29 09:06:50;;;;;;;7.47;1.70;;;14.10;99.90;;;14.01;76.55;98504.50;5008259;28;20133;-82
2023/10/29 09:09:17;;;;;;;5.82;1.25;;;14.10;99.90;;;14.00;75.73;98515.47;5001899;28;20487;-82
2023/10/29 09:11:46;;;;;;;4.63;1.00;;;14.10;99.90;;;14.00;74.16;98507.44;5010125;28;20046;-82
2023/10/29 09:14:14;;;;;;;3.70;1.10;;;14.10;99.90;;;14.00;74.27;98518.97;5023278;28;20157;-82
2023/10/29 09:16:41;;;;;;;6.50;1.13;;;14.10;99.90;;;14.02;75.41;98516.81;5008899;28;20050;-82
2023/10/29 09:19:10;;;;;;;5.65;1.27;;;14.10;99.90;;;13.99;74.42;98514.69;5009684;28;20137;-82
2023/10/29 09:21:38;;;;;;;5.45;1.20;;;14.10;99.90;;;13.97;74.17;98526.78;5024313;28;20042;-82
2023/10/29 09:24:06;;;;;;;5.50;1.00;;;14.10;99.90;;;13.99;73.50;98535.34;5023752;28;20042;-82
2023/10/29 09:26:36;;;;;;;4.45;1.30;;;14.10;99.90;;;14.02;74.19;98534.78;5009391;28;20096;-82
2023/10/29 09:29:04;;;;;;;5.60;1.40;;;14.10;99.90;;;14.04;74.84;98540.66;5022780;28;20405;-81
2023/10/29 09:31:31;;;;;;;4.07;1.05;;;14.20;99.90;;;14.01;74.20;98554.63;5022889;28;20050;-81
2023/10/29 09:33:59;;;;;;;6.22;1.60;;;14.10;99.90;;;14.02;74.88;98566.94;5022781;28;20067;-81
2023/10/29 09:36:29;;;;;;;5.05;1.08;;;14.10;99.90;;;14.01;74.79;98558.09;5009204;28;20069;-81
2023/10/29 09:38:57;;;;;;;5.47;1.08;;;14.10;99.90;;;14.01;74.91;98543.91;5039981;28;20146;-81
2023/10/29 09:41:24;;;;;;;4.85;1.20;;;14.10;99.90;;;13.97;74.36;98542.88;5022925;28;20509;-82
2023/10/29 09:43:54;;;;;;;4.35;1.10;;;14.10;99.90;;;14.01;75.16;98551.94;5010005;28;20101;-82
2023/10/29 09:46:23;;;;;;;6.32;1.38;;;14.10;99.90;;;14.01;74.50;98549.28;5006978;28;20054;-82
2023/10/29 09:48:53;;;;;;;3.65;1.05;;;14.10;99.90;;;14.04;75.63;98557.53;5008114;28;20441;-81
2023/10/29 09:51:22;;;;;;;6.57;1.23;;;14.10;99.90;;;14.04;75.22;98554.84;5007853;28;20054;-81
2023/10/29 09:53:53;;;;;;;3.90;1.08;;;14.20;99.90;;;14.08;75.24;98552.41;5009607;28;20053;-81
2023/10/29 09:56:20;;;;;;;;;;;14.20;99.90;;;14.13;75.60;98547.81;5024228;28;20049;-81
2023/10/29 09:58:48;;;;;;;4.70;1.20;;;14.20;99.90;;;14.13;76.23;98529.03;5005893;28;19929;-82
2023/10/29 10:01:16;;;;;;;5.07;1.10;;;14.20;99.90;;;14.14;75.86;98536.00;5007128;28;20129;-81
2023/10/29 10:03:43;;;;;;;4.63;1.30;;;14.30;99.90;;;14.14;74.99;98535.19;5007371;28;20050;-81
2023/10/29 10:06:12;;;;;;;5.47;1.30;;;14.30;99.90;;;14.21;75.17;98540.25;5039349;28;20413;-81
2023/10/29 10:08:39;;;;;;;5.78;1.40;;;14.30;99.90;;;14.32;76.11;98542.53;5008632;28;20046;-82
2023/10/29 10:11:21;;;;;;;4.25;1.15;;;14.40;99.90;;;14.40;75.52;98535.78;5009409;28;20087;-82
2023/10/29 10:13:48;;;;;;;4.70;0.95;;;14.60;99.90;;;14.51;73.85;98539.97;5008743;28;20056;-82
2023/10/29 10:16:19;;;;;;;4.70;1.17;;;14.70;99.90;;;14.53;73.66;98543.16;5023910;28;20065;-82
2023/10/29 10:18:51;;;;;;;5.07;1.30;;;14.70;99.90;;;14.54;74.02;98546.63;5008157;28;20130;-82
2023/10/29 10:21:21;;;;;;;5.90;1.30;;;14.70;99.90;;;14.60;74.83;98550.88;5006716;28;20061;-82
2023/10/29 10:23:51;;;;;;;6.85;1.17;;;14.80;99.90;;;14.61;73.00;98555.97;5005633;28;20054;-82